Royal Princess — ZCEI3 — position and weather

sailwx.info

Track history (hours):
 
Tides and Currents Weather Stations Pressure Air Temp Water Temp Dewpoint Dewpoint Depression Visibility Wind Speed Wind Dir Waves Ship Positions

Royal Princess

Last reported at 2017-Sep-22 02:00 UTC. Time now 2017-Sep-22 17:19 UTC.
Position N 38°44' E 015°25'.

Length 330 m; draft 8.6 m.

Type: Passenger vessel. MMSI: 310661000.

Date/timePositionNaut miles runAvg speedWind from/ knotsBaromVisibWave heightAir tempDewpointWater temp
2017-Sep-22 02:00N 38°44' E 015°25'916.7
2017-Sep-22 01:29N 38°52' E 015°20'713.8
2017-Sep-22 01:00N 38°54' E 015°12'6102.3 350 / 51020.310.8 20.010.925.4
2017-Sep-22 00:56N 38°60' E 015°14'2617.5
2017-Sep-21 23:25N 39°22' E 014°56'2417.3
2017-Sep-21 22:01N 39°44' E 014°42'717.4
2017-Sep-21 21:36N 39°50' E 014°38'317.4
2017-Sep-21 21:25N 39°53' E 014°36'512.9
2017-Sep-21 21:00N 39°48' E 014°36'3029.1 360 / 111018.110.8 20.012.024.4
2017-Sep-21 19:57N 40°15' E 014°19'1917.0
2017-Sep-21 18:50N 40°32' E 014°08'616.9
2017-Sep-21 18:30N 40°37' E 014°10'816.9
2017-Sep-21 18:00N 40°45' E 014°15'5 0.4
2017-Sep-21 06:24N 40°50' E 014°16'10210.8
2017-Sep-20 21:00N 41°18' E 012°06'55 2.3 360 / 201017.410.8 20.5 6.8
2017-Sep-19 21:00N 40°54' E 013°12'1925.9 270 / 301014.5 5.4 19.510.3
2017-Sep-19 20:16N 40°48' E 013°36'719.6
2017-Sep-19 19:54N 40°43' E 013°43'819.1
2017-Sep-19 19:30N 40°39' E 013°50'918.6
2017-Sep-19 19:00N 40°39' E 014°03'1019.2
2017-Sep-19 18:30N 40°45' E 014°13'611.0
2017-Sep-19 17:58N 40°50' E 014°16'0 0.0
2017-Sep-19 05:41N 40°50' E 014°16'0 0.8
2017-Sep-19 05:30N 40°50' E 014°16'9711.4
2017-Sep-18 21:00N 39°18' E 014°54'3419.0 330 / 81015.410.8 21.015.126.2
2017-Sep-18 19:13N 38°51' E 015°20'416.2
2017-Sep-18 18:59N 38°48' E 015°22'816.4
2017-Sep-18 18:30N 38°41' E 015°27'816.2
2017-Sep-18 18:00N 38°33' E 015°32'815.9
2017-Sep-18 17:30N 38°26' E 015°36'815.7
2017-Sep-18 17:00N 38°19' E 015°41'611.6
2017-Sep-18 16:30N 38°14' E 015°38'815.4
2017-Sep-18 16:01N 38°07' E 015°36'815.9
2017-Sep-18 15:30N 37°59' E 015°36'815.1
2017-Sep-18 15:00N 37°52' E 015°40'1315.4
2017-Sep-18 14:11N 37°49' E 015°55'6916.4
2017-Sep-18 10:00N 38°30' E 017°06'7816.9 340 / 201016.310.8 30.017.925.8
2017-Sep-18 05:22N 39°24' E 018°18'917.2
2017-Sep-18 04:50N 39°31' E 018°26'1316.6
2017-Sep-18 04:03N 39°40' E 018°38'9813.9
2017-Sep-17 21:00N 41°18' E 018°36'30 1.5 1017.3 5.4 23.022.325.6
2017-Sep-17 00:39N 41°47' E 018°41'718.8
2017-Sep-17 00:15N 41°40' E 018°42'718.6
2017-Sep-16 23:52N 41°33' E 018°44'718.3
2017-Sep-16 23:30N 41°27' E 018°45'918.1
2017-Sep-16 23:00N 41°18' E 018°48'917.9
2017-Sep-16 22:30N 41°09' E 018°49'917.6
2017-Sep-16 22:00N 41°00' E 018°50'917.0
2017-Sep-16 21:30N 40°52' E 018°52'917.3
2017-Sep-16 21:00N 40°43' E 018°54'7462.1
2017-Sep-16 21:00N 40°36' E 018°54'2 3.5 160 / 141014.210.8 23.521.526.2
2017-Sep-16 20:30N 40°35' E 018°55'917.0
2017-Sep-16 20:00N 40°26' E 018°57'817.0
2017-Sep-16 19:30N 40°18' E 018°59'917.0
2017-Sep-16 19:00N 40°09' E 019°00'916.9
2017-Sep-16 18:30N 40°01' E 019°02'917.1
2017-Sep-16 17:58N 39°52' E 019°04'817.2
2017-Sep-16 17:30N 39°44' E 019°07'917.2
2017-Sep-16 17:00N 39°36' E 019°11'917.1
2017-Sep-16 16:30N 39°29' E 019°16'816.7
2017-Sep-16 16:01N 39°21' E 019°20'816.6
2017-Sep-16 15:31N 39°13' E 019°25'816.7
2017-Sep-16 15:00N 39°06' E 019°29'816.9
2017-Sep-16 14:30N 38°58' E 019°34'816.9
2017-Sep-16 14:00N 38°50' E 019°38'916.9
2017-Sep-16 13:27N 38°42' E 019°43'7917.6
2017-Sep-16 09:00N 37°30' E 020°24'11415.7 330 / 81015.510.8 24.020.227.5
2017-Sep-16 01:43N 36°15' E 022°11'315.9
2017-Sep-16 01:30N 36°13' E 022°15'2416.1
2017-Sep-16 00:00N 36°02' E 022°42'2473.9
2017-Sep-16 00:00N 36°00' E 022°42'3916.6 330 / 201012.010.8 24.020.226.8
2017-Sep-15 21:39N 36°04' E 023°30'316.9
2017-Sep-15 21:31N 36°04' E 023°33'1733.6
2017-Sep-15 21:00N 36°06' E 023°54'749.3 270 / 131012.910.8 24.021.026.4
2017-Sep-15 20:51N 36°06' E 023°46'616.3
2017-Sep-15 20:30N 36°08' E 023°52'1416.4
2017-Sep-15 19:40N 36°11' E 024°09'1816.4
2017-Sep-15 18:32N 36°15' E 024°32'116.3
2017-Sep-15 18:27N 36°15' E 024°33'1216.4
2017-Sep-15 17:43N 36°18' E 024°48'316.5
2017-Sep-15 17:31N 36°19' E 024°52'42 2.0
2017-Sep-14 21:00N 37°00' E 024°54'6 9.9 290 / 51012.610.8 24.520.226.2
2017-Sep-14 20:21N 37°06' E 024°56'411.6
2017-Sep-14 20:00N 37°10' E 024°58'612.0
2017-Sep-14 19:30N 37°15' E 025°02'612.2
2017-Sep-14 19:00N 37°21' E 025°05'612.4
2017-Sep-14 18:30N 37°26' E 025°09'612.0
2017-Sep-14 18:00N 37°28' E 025°16'2 3.7
2017-Sep-14 17:21N 37°28' E 025°19'0 0.0
2017-Sep-14 17:00N 37°28' E 025°19'0 0.0
2017-Sep-14 16:27N 37°28' E 025°19'0 0.0
2017-Sep-14 16:00N 37°28' E 025°19'0 0.0
2017-Sep-14 15:30N 37°28' E 025°19'0 0.0
2017-Sep-14 15:00N 37°28' E 025°19'0 0.0
2017-Sep-14 14:30N 37°28' E 025°19'0 0.0
2017-Sep-14 14:00N 37°28' E 025°19'0 0.0
2017-Sep-14 13:30N 37°28' E 025°19'0 0.0
2017-Sep-14 13:00N 37°28' E 025°19'0 0.0
2017-Sep-14 12:30N 37°28' E 025°19'0 0.0
2017-Sep-14 12:00N 37°28' E 025°19'0 0.0
2017-Sep-14 11:30N 37°28' E 025°19'0 0.0
2017-Sep-14 11:00N 37°28' E 025°19'0 0.0
2017-Sep-14 10:30N 37°28' E 025°19'0 0.0
2017-Sep-14 10:00N 37°28' E 025°19'0 0.0
2017-Sep-14 09:30N 37°28' E 025°19'0 0.0
2017-Sep-14 09:00N 37°28' E 025°19'0 0.0
2017-Sep-14 08:30N 37°28' E 025°19'0 0.0
2017-Sep-14 08:00N 37°28' E 025°19'0 0.0
2017-Sep-14 07:30N 37°28' E 025°19'0 0.0
2017-Sep-14 07:00N 37°28' E 025°19'0 0.0
2017-Sep-14 06:30N 37°28' E 025°19'0 0.0
2017-Sep-14 06:00N 37°28' E 025°19'0 0.0
2017-Sep-14 05:30N 37°28' E 025°19'0 0.0
2017-Sep-14 04:57N 37°28' E 025°19'0 0.2
2017-Sep-14 04:30N 37°28' E 025°19'3 6.5
2017-Sep-14 04:00N 37°27' E 025°15'1219.4
2017-Sep-14 03:22N 37°22' E 025°01'720.1
2017-Sep-14 03:00N 37°18' E 024°54'6421.1
2017-Sep-14 00:00N 36°42' E 023°48'29310.9 1015.010.8 24.520.726.2
2017-Sep-12 21:00N 37°42' E 017°48'10420.8 310 / 131016.910.8 24.818.226.8
2017-Sep-12 16:00N 37°54' E 015°37'2716.3
2017-Sep-12 14:22N 38°21' E 015°40'7020.5
2017-Sep-12 10:57N 39°08' E 014°33'  
Track history (hours):
 
Tides and Currents Weather Stations Pressure Air Temp Water Temp Dewpoint Dewpoint Depression Visibility Wind Speed Wind Dir Waves Ship Positions

Royal Princess

Last reported at 2017-Sep-22 02:00 UTC. Time now 2017-Sep-22 17:19 UTC.
Position N 38°44' E 015°25'.

Length 330 m; draft 8.6 m.

Type: Passenger vessel. MMSI: 310661000.

Date/timePositionNaut miles runAvg speedWind from/ knotsBaromVisibWave heightAir tempDewpointWater temp
2017-Sep-22 02:00N 38°44' E 015°25'916.7
2017-Sep-22 01:29N 38°52' E 015°20'713.8
2017-Sep-22 01:00N 38°54' E 015°12'6102.3 350 / 51020.310.8 20.010.925.4
2017-Sep-22 00:56N 38°60' E 015°14'2617.5
2017-Sep-21 23:25N 39°22' E 014°56'2417.3
2017-Sep-21 22:01N 39°44' E 014°42'717.4
2017-Sep-21 21:36N 39°50' E 014°38'317.4
2017-Sep-21 21:25N 39°53' E 014°36'512.9
2017-Sep-21 21:00N 39°48' E 014°36'3029.1 360 / 111018.110.8 20.012.024.4
2017-Sep-21 19:57N 40°15' E 014°19'1917.0
2017-Sep-21 18:50N 40°32' E 014°08'616.9
2017-Sep-21 18:30N 40°37' E 014°10'816.9
2017-Sep-21 18:00N 40°45' E 014°15'5 0.4
2017-Sep-21 06:24N 40°50' E 014°16'10210.8
2017-Sep-20 21:00N 41°18' E 012°06'55 2.3 360 / 201017.410.8 20.5 6.8
2017-Sep-19 21:00N 40°54' E 013°12'1925.9 270 / 301014.5 5.4 19.510.3
2017-Sep-19 20:16N 40°48' E 013°36'719.6
2017-Sep-19 19:54N 40°43' E 013°43'819.1
2017-Sep-19 19:30N 40°39' E 013°50'918.6
2017-Sep-19 19:00N 40°39' E 014°03'1019.2
2017-Sep-19 18:30N 40°45' E 014°13'611.0
2017-Sep-19 17:58N 40°50' E 014°16'0 0.0
2017-Sep-19 05:41N 40°50' E 014°16'0 0.8
2017-Sep-19 05:30N 40°50' E 014°16'9711.4
2017-Sep-18 21:00N 39°18' E 014°54'3419.0 330 / 81015.410.8 21.015.126.2
2017-Sep-18 19:13N 38°51' E 015°20'416.2
2017-Sep-18 18:59N 38°48' E 015°22'816.4
2017-Sep-18 18:30N 38°41' E 015°27'816.2
2017-Sep-18 18:00N 38°33' E 015°32'815.9
2017-Sep-18 17:30N 38°26' E 015°36'815.7
2017-Sep-18 17:00N 38°19' E 015°41'611.6
2017-Sep-18 16:30N 38°14' E 015°38'815.4
2017-Sep-18 16:01N 38°07' E 015°36'815.9
2017-Sep-18 15:30N 37°59' E 015°36'815.1
2017-Sep-18 15:00N 37°52' E 015°40'1315.4
2017-Sep-18 14:11N 37°49' E 015°55'6916.4
2017-Sep-18 10:00N 38°30' E 017°06'7816.9 340 / 201016.310.8 30.017.925.8
2017-Sep-18 05:22N 39°24' E 018°18'917.2
2017-Sep-18 04:50N 39°31' E 018°26'1316.6
2017-Sep-18 04:03N 39°40' E 018°38'9813.9
2017-Sep-17 21:00N 41°18' E 018°36'30 1.5 1017.3 5.4 23.022.325.6
2017-Sep-17 00:39N 41°47' E 018°41'718.8
2017-Sep-17 00:15N 41°40' E 018°42'718.6
2017-Sep-16 23:52N 41°33' E 018°44'718.3
2017-Sep-16 23:30N 41°27' E 018°45'918.1
2017-Sep-16 23:00N 41°18' E 018°48'917.9
2017-Sep-16 22:30N 41°09' E 018°49'917.6
2017-Sep-16 22:00N 41°00' E 018°50'917.0
2017-Sep-16 21:30N 40°52' E 018°52'917.3
2017-Sep-16 21:00N 40°43' E 018°54'7462.1
2017-Sep-16 21:00N 40°36' E 018°54'2 3.5 160 / 141014.210.8 23.521.526.2
2017-Sep-16 20:30N 40°35' E 018°55'917.0
2017-Sep-16 20:00N 40°26' E 018°57'817.0
2017-Sep-16 19:30N 40°18' E 018°59'917.0
2017-Sep-16 19:00N 40°09' E 019°00'916.9
2017-Sep-16 18:30N 40°01' E 019°02'917.1
2017-Sep-16 17:58N 39°52' E 019°04'817.2
2017-Sep-16 17:30N 39°44' E 019°07'917.2
2017-Sep-16 17:00N 39°36' E 019°11'917.1
2017-Sep-16 16:30N 39°29' E 019°16'816.7
2017-Sep-16 16:01N 39°21' E 019°20'816.6
2017-Sep-16 15:31N 39°13' E 019°25'816.7
2017-Sep-16 15:00N 39°06' E 019°29'816.9
2017-Sep-16 14:30N 38°58' E 019°34'816.9
2017-Sep-16 14:00N 38°50' E 019°38'916.9
2017-Sep-16 13:27N 38°42' E 019°43'7917.6
2017-Sep-16 09:00N 37°30' E 020°24'11415.7 330 / 81015.510.8 24.020.227.5
2017-Sep-16 01:43N 36°15' E 022°11'315.9
2017-Sep-16 01:30N 36°13' E 022°15'2416.1
2017-Sep-16 00:00N 36°02' E 022°42'2473.9
2017-Sep-16 00:00N 36°00' E 022°42'3916.6 330 / 201012.010.8 24.020.226.8
2017-Sep-15 21:39N 36°04' E 023°30'316.9
2017-Sep-15 21:31N 36°04' E 023°33'1733.6
2017-Sep-15 21:00N 36°06' E 023°54'749.3 270 / 131012.910.8 24.021.026.4
2017-Sep-15 20:51N 36°06' E 023°46'616.3
2017-Sep-15 20:30N 36°08' E 023°52'1416.4
2017-Sep-15 19:40N 36°11' E 024°09'1816.4
2017-Sep-15 18:32N 36°15' E 024°32'116.3
2017-Sep-15 18:27N 36°15' E 024°33'1216.4
2017-Sep-15 17:43N 36°18' E 024°48'316.5
2017-Sep-15 17:31N 36°19' E 024°52'42 2.0
2017-Sep-14 21:00N 37°00' E 024°54'6 9.9 290 / 51012.610.8 24.520.226.2
2017-Sep-14 20:21N 37°06' E 024°56'411.6
2017-Sep-14 20:00N 37°10' E 024°58'612.0
2017-Sep-14 19:30N 37°15' E 025°02'612.2
2017-Sep-14 19:00N 37°21' E 025°05'612.4
2017-Sep-14 18:30N 37°26' E 025°09'612.0
2017-Sep-14 18:00N 37°28' E 025°16'2 3.7
2017-Sep-14 17:21N 37°28' E 025°19'0 0.0
2017-Sep-14 17:00N 37°28' E 025°19'0 0.0
2017-Sep-14 16:27N 37°28' E 025°19'0 0.0
2017-Sep-14 16:00N 37°28' E 025°19'0 0.0
2017-Sep-14 15:30N 37°28' E 025°19'0 0.0
2017-Sep-14 15:00N 37°28' E 025°19'0 0.0
2017-Sep-14 14:30N 37°28' E 025°19'0 0.0
2017-Sep-14 14:00N 37°28' E 025°19'0 0.0
2017-Sep-14 13:30N 37°28' E 025°19'0 0.0
2017-Sep-14 13:00N 37°28' E 025°19'0 0.0
2017-Sep-14 12:30N 37°28' E 025°19'0 0.0
2017-Sep-14 12:00N 37°28' E 025°19'0 0.0
2017-Sep-14 11:30N 37°28' E 025°19'0 0.0
2017-Sep-14 11:00N 37°28' E 025°19'0 0.0
2017-Sep-14 10:30N 37°28' E 025°19'0 0.0
2017-Sep-14 10:00N 37°28' E 025°19'0 0.0
2017-Sep-14 09:30N 37°28' E 025°19'0 0.0
2017-Sep-14 09:00N 37°28' E 025°19'0 0.0
2017-Sep-14 08:30N 37°28' E 025°19'0 0.0
2017-Sep-14 08:00N 37°28' E 025°19'0 0.0
2017-Sep-14 07:30N 37°28' E 025°19'0 0.0
2017-Sep-14 07:00N 37°28' E 025°19'0 0.0
2017-Sep-14 06:30N 37°28' E 025°19'0 0.0
2017-Sep-14 06:00N 37°28' E 025°19'0 0.0
2017-Sep-14 05:30N 37°28' E 025°19'0 0.0
2017-Sep-14 04:57N 37°28' E 025°19'0 0.2
2017-Sep-14 04:30N 37°28' E 025°19'3 6.5
2017-Sep-14 04:00N 37°27' E 025°15'1219.4
2017-Sep-14 03:22N 37°22' E 025°01'720.1
2017-Sep-14 03:00N 37°18' E 024°54'6421.1
2017-Sep-14 00:00N 36°42' E 023°48'29310.9 1015.010.8 24.520.726.2
2017-Sep-12 21:00N 37°42' E 017°48'10420.8 310 / 131016.910.8 24.818.226.8
2017-Sep-12 16:00N 37°54' E 015°37'2716.3
2017-Sep-12 14:22N 38°21' E 015°40'7020.5
2017-Sep-12 10:57N 39°08' E 014°33'  

Dump ship's entire track history